Barnett, Georgia
Current Conditions -  °F | °C
As of 5:15 PM on Friday 31 Oct 2014 (Local Time) from KHQU Reporting Station
Broken Clouds Broken Clouds  
Wind Chill: 67°   Ceiling: 12000
Heat Index: 67°   Visibility: 10mi
Dew Point: 52°   Wind: 5mph
Humidity: 60%   Direction: 300°WNW
Pressure: 29.84"   Gusts: NA
Location:  33.4918°N, 82.7343°W
Report Text: KHQU 312115Z AUTO 30004KT 10SM SCT070 SCT085 BKN120 19/11 A2984 RMK AO1 T01930113
Loading
Personal Weather Stations






























Interactive Weather Map
Tropical Storm Tracking
New forecast layout! Learn more

10-Day Weather Forecast

Advertisements
Track Severe Weather on mobile